<?xml version="1.0" encoding="UTF-8" standalone="no" ?>
<gpx xmlns="http://www.topografix.com/GPX/1/1" xmlns:xsi="http://www.w3.org/2001/XMLSchema-instance" xsi:schemaLocation="http://www.topografix.com/GPX/1/1 http://www.topografix.com/GPX/1/1/gpx.xsd" version="1.1" creator="VisuGPX - https://www.visugpx.com">
  <metadata>
    <name>Rando Routelle              </name>
    <desc><![CDATA[Randonnée dans la forêt au Nord de Routelle                                                                             ]]></desc>
  </metadata>
  <trk>
    <name><![CDATA[Rando Routelle (Saint Vit)]]></name>
    <trkseg>
      <trkpt lat="47.16645" lon="5.85047">
        <ele>1008.079834</ele>
        <time>2010-01-03T09:41:37Z</time>
      </trkpt>
      <trkpt lat="47.1666" lon="5.85046">
        <ele>1007.5991211</ele>
        <time>2010-01-03T09:42:09Z</time>
      </trkpt>
      <trkpt lat="47.16665" lon="5.85046">
        <ele>1007.5991211</ele>
        <time>2010-01-03T09:42:28Z</time>
      </trkpt>
      <trkpt lat="47.16677" lon="5.85036">
        <ele>1007.5991211</ele>
        <time>2010-01-03T09:42:53Z</time>
      </trkpt>
      <trkpt lat="47.16682" lon="5.85032">
        <ele>1007.5991211</ele>
        <time>2010-01-03T09:42:58Z</time>
      </trkpt>
      <trkpt lat="47.16689" lon="5.85029">
        <ele>1008.079834</ele>
        <time>2010-01-03T09:43:04Z</time>
      </trkpt>
      <trkpt lat="47.16691" lon="5.85027">
        <ele>1007.5991211</ele>
        <time>2010-01-03T09:43:07Z</time>
      </trkpt>
      <trkpt lat="47.16704" lon="5.85018">
        <ele>1008.079834</ele>
        <time>2010-01-03T09:43:21Z</time>
      </trkpt>
      <trkpt lat="47.16718" lon="5.85006">
        <ele>1008.079834</ele>
        <time>2010-01-03T09:43:37Z</time>
      </trkpt>
      <trkpt lat="47.16721" lon="5.85007">
        <ele>1008.079834</ele>
        <time>2010-01-03T09:43:39Z</time>
      </trkpt>
      <trkpt lat="47.16727" lon="5.85011">
        <ele>1008.079834</ele>
        <time>2010-01-03T09:43:45Z</time>
      </trkpt>
      <trkpt lat="47.16728" lon="5.85013">
        <ele>1008.5603027</ele>
        <time>2010-01-03T09:43:48Z</time>
      </trkpt>
      <trkpt lat="47.16733" lon="5.85024">
        <ele>1008.5603027</ele>
        <time>2010-01-03T09:44:12Z</time>
      </trkpt>
      <trkpt lat="47.1674" lon="5.85029">
        <ele>1008.5603027</ele>
        <time>2010-01-03T09:44:23Z</time>
      </trkpt>
      <trkpt lat="47.16758" lon="5.85023">
        <ele>1009.0410156</ele>
        <time>2010-01-03T09:44:44Z</time>
      </trkpt>
      <trkpt lat="47.16762" lon="5.8502">
        <ele>1009.0410156</ele>
        <time>2010-01-03T09:44:50Z</time>
      </trkpt>
      <trkpt lat="47.16778" lon="5.85016">
        <ele>1009.5217285</ele>
        <time>2010-01-03T09:45:12Z</time>
      </trkpt>
      <trkpt lat="47.16781" lon="5.8501">
        <ele>1009.0410156</ele>
        <time>2010-01-03T09:46:05Z</time>
      </trkpt>
      <trkpt lat="47.16782" lon="5.85013">
        <ele>1009.5217285</ele>
        <time>2010-01-03T09:46:09Z</time>
      </trkpt>
      <trkpt lat="47.1679" lon="5.85012">
        <ele>1009.0410156</ele>
        <time>2010-01-03T09:46:17Z</time>
      </trkpt>
      <trkpt lat="47.16793" lon="5.85009">
        <ele>1009.5217285</ele>
        <time>2010-01-03T09:46:21Z</time>
      </trkpt>
      <trkpt lat="47.16797" lon="5.84998">
        <ele>1009.0410156</ele>
        <time>2010-01-03T09:46:39Z</time>
      </trkpt>
      <trkpt lat="47.16805" lon="5.84993">
        <ele>1009.0410156</ele>
        <time>2010-01-03T09:46:50Z</time>
      </trkpt>
      <trkpt lat="47.1682" lon="5.84996">
        <ele>1009.0410156</ele>
        <time>2010-01-03T09:47:03Z</time>
      </trkpt>
      <trkpt lat="47.16833" lon="5.85001">
        <ele>1009.5217285</ele>
        <time>2010-01-03T09:47:14Z</time>
      </trkpt>
      <trkpt lat="47.16859" lon="5.8501">
        <ele>1010.963623</ele>
        <time>2010-01-03T09:47:52Z</time>
      </trkpt>
      <trkpt lat="47.16863" lon="5.85008">
        <ele>1010.963623</ele>
        <time>2010-01-03T09:48:04Z</time>
      </trkpt>
      <trkpt lat="47.16865" lon="5.85014">
        <ele>1010.4829102</ele>
        <time>2010-01-03T09:48:07Z</time>
      </trkpt>
      <trkpt lat="47.16879" lon="5.85031">
        <ele>1010.963623</ele>
        <time>2010-01-03T09:48:21Z</time>
      </trkpt>
      <trkpt lat="47.16888" lon="5.85044">
        <ele>1011.9250488</ele>
        <time>2010-01-03T09:48:33Z</time>
      </trkpt>
      <trkpt lat="47.16905" lon="5.85064">
        <ele>1011.9250488</ele>
        <time>2010-01-03T09:48:49Z</time>
      </trkpt>
      <trkpt lat="47.1692" lon="5.85083">
        <ele>1011.9250488</ele>
        <time>2010-01-03T09:49:04Z</time>
      </trkpt>
      <trkpt lat="47.1693" lon="5.85097">
        <ele>1012.4055176</ele>
        <time>2010-01-03T09:49:17Z</time>
      </trkpt>
      <trkpt lat="47.16932" lon="5.85099">
        <ele>1012.4055176</ele>
        <time>2010-01-03T09:49:18Z</time>
      </trkpt>
      <trkpt lat="47.16947" lon="5.85122">
        <ele>1012.4055176</ele>
        <time>2010-01-03T09:49:32Z</time>
      </trkpt>
      <trkpt lat="47.16956" lon="5.85134">
        <ele>1012.8862305</ele>
        <time>2010-01-03T09:49:45Z</time>
      </trkpt>
      <trkpt lat="47.16965" lon="5.85143">
        <ele>1013.3669434</ele>
        <time>2010-01-03T09:49:53Z</time>
      </trkpt>
      <trkpt lat="47.16971" lon="5.85155">
        <ele>1013.8474121</ele>
        <time>2010-01-03T09:50:01Z</time>
      </trkpt>
      <trkpt lat="47.16986" lon="5.85173">
        <ele>1013.3669434</ele>
        <time>2010-01-03T09:50:13Z</time>
      </trkpt>
      <trkpt lat="47.16983" lon="5.85177">
        <ele>1013.8474121</ele>
        <time>2010-01-03T09:50:15Z</time>
      </trkpt>
      <trkpt lat="47.16999" lon="5.85195">
        <ele>1013.8474121</ele>
        <time>2010-01-03T09:50:31Z</time>
      </trkpt>
      <trkpt lat="47.17009" lon="5.85211">
        <ele>1013.8474121</ele>
        <time>2010-01-03T09:50:42Z</time>
      </trkpt>
      <trkpt lat="47.17011" lon="5.85214">
        <ele>1013.8474121</ele>
        <time>2010-01-03T09:50:44Z</time>
      </trkpt>
      <trkpt lat="47.17015" lon="5.85221">
        <ele>1013.8474121</ele>
        <time>2010-01-03T09:50:49Z</time>
      </trkpt>
      <trkpt lat="47.1703" lon="5.85242">
        <ele>1014.328125</ele>
        <time>2010-01-03T09:51:03Z</time>
      </trkpt>
      <trkpt lat="47.17032" lon="5.85247">
        <ele>1013.8474121</ele>
        <time>2010-01-03T09:51:07Z</time>
      </trkpt>
      <trkpt lat="47.1704" lon="5.85267">
        <ele>1014.328125</ele>
        <time>2010-01-03T09:51:20Z</time>
      </trkpt>
      <trkpt lat="47.17042" lon="5.8527">
        <ele>1014.8088379</ele>
        <time>2010-01-03T09:51:22Z</time>
      </trkpt>
      <trkpt lat="47.17047" lon="5.85285">
        <ele>1014.8088379</ele>
        <time>2010-01-03T09:51:33Z</time>
      </trkpt>
      <trkpt lat="47.17053" lon="5.85303">
        <ele>1014.8088379</ele>
        <time>2010-01-03T09:51:43Z</time>
      </trkpt>
      <trkpt lat="47.17064" lon="5.85317">
        <ele>1015.2895508</ele>
        <time>2010-01-03T09:51:56Z</time>
      </trkpt>
      <trkpt lat="47.17066" lon="5.8532">
        <ele>1015.2895508</ele>
        <time>2010-01-03T09:51:58Z</time>
      </trkpt>
      <trkpt lat="47.17072" lon="5.85333">
        <ele>1015.2895508</ele>
        <time>2010-01-03T09:52:06Z</time>
      </trkpt>
      <trkpt lat="47.17081" lon="5.85351">
        <ele>1015.2895508</ele>
        <time>2010-01-03T09:52:17Z</time>
      </trkpt>
      <trkpt lat="47.17082" lon="5.85363">
        <ele>1015.7702637</ele>
        <time>2010-01-03T09:52:26Z</time>
      </trkpt>
      <trkpt lat="47.17085" lon="5.85392">
        <ele>1016.2507324</ele>
        <time>2010-01-03T09:52:44Z</time>
      </trkpt>
      <trkpt lat="47.17085" lon="5.85395">
        <ele>1016.2507324</ele>
        <time>2010-01-03T09:52:46Z</time>
      </trkpt>
      <trkpt lat="47.1708" lon="5.85419">
        <ele>1016.7314453</ele>
        <time>2010-01-03T09:52:58Z</time>
      </trkpt>
      <trkpt lat="47.17078" lon="5.85439">
        <ele>1017.2121582</ele>
        <time>2010-01-03T09:53:07Z</time>
      </trkpt>
      <trkpt lat="47.17075" lon="5.85453">
        <ele>1017.692627</ele>
        <time>2010-01-03T09:53:19Z</time>
      </trkpt>
      <trkpt lat="47.17079" lon="5.85467">
        <ele>1018.6540527</ele>
        <time>2010-01-03T09:53:35Z</time>
      </trkpt>
      <trkpt lat="47.17082" lon="5.85488">
        <ele>1018.6540527</ele>
        <time>2010-01-03T09:53:48Z</time>
      </trkpt>
      <trkpt lat="47.17083" lon="5.85492">
        <ele>1018.6540527</ele>
        <time>2010-01-03T09:53:51Z</time>
      </trkpt>
      <trkpt lat="47.17086" lon="5.85515">
        <ele>1019.6154785</ele>
        <time>2010-01-03T09:54:05Z</time>
      </trkpt>
      <trkpt lat="47.17096" lon="5.85527">
        <ele>1021.0576172</ele>
        <time>2010-01-03T09:54:16Z</time>
      </trkpt>
      <trkpt lat="47.17102" lon="5.85523">
        <ele>1021.5380859</ele>
        <time>2010-01-03T09:54:23Z</time>
      </trkpt>
      <trkpt lat="47.17117" lon="5.85509">
        <ele>1023.4609375</ele>
        <time>2010-01-03T09:54:45Z</time>
      </trkpt>
      <trkpt lat="47.17123" lon="5.85506">
        <ele>1023.9414063</ele>
        <time>2010-01-03T09:54:51Z</time>
      </trkpt>
      <trkpt lat="47.17148" lon="5.85506">
        <ele>1025.8640137</ele>
        <time>2010-01-03T09:55:15Z</time>
      </trkpt>
      <trkpt lat="47.17156" lon="5.8551">
        <ele>1026.8254395</ele>
        <time>2010-01-03T09:55:34Z</time>
      </trkpt>
      <trkpt lat="47.17166" lon="5.85516">
        <ele>1028.7480469</ele>
        <time>2010-01-03T09:55:53Z</time>
      </trkpt>
      <trkpt lat="47.17183" lon="5.85524">
        <ele>1030.6706543</ele>
        <time>2010-01-03T09:56:08Z</time>
      </trkpt>
      <trkpt lat="47.1719" lon="5.85528">
        <ele>1030.6706543</ele>
        <time>2010-01-03T09:56:15Z</time>
      </trkpt>
      <trkpt lat="47.172" lon="5.85532">
        <ele>1031.6318359</ele>
        <time>2010-01-03T09:56:26Z</time>
      </trkpt>
      <trkpt lat="47.17217" lon="5.85542">
        <ele>1034.5158691</ele>
        <time>2010-01-03T09:56:45Z</time>
      </trkpt>
      <trkpt lat="47.17228" lon="5.85545">
        <ele>1035.4770508</ele>
        <time>2010-01-03T09:56:56Z</time>
      </trkpt>
      <trkpt lat="47.17241" lon="5.85553">
        <ele>1037.3999023</ele>
        <time>2010-01-03T09:57:12Z</time>
      </trkpt>
      <trkpt lat="47.1725" lon="5.85559">
        <ele>1039.3225098</ele>
        <time>2010-01-03T09:57:23Z</time>
      </trkpt>
      <trkpt lat="47.17252" lon="5.85564">
        <ele>1039.3225098</ele>
        <time>2010-01-03T09:57:28Z</time>
      </trkpt>
      <trkpt lat="47.17262" lon="5.85578">
        <ele>1040.2839355</ele>
        <time>2010-01-03T09:57:42Z</time>
      </trkpt>
      <trkpt lat="47.17278" lon="5.85591">
        <ele>1041.2451172</ele>
        <time>2010-01-03T09:58:05Z</time>
      </trkpt>
      <trkpt lat="47.17287" lon="5.85605">
        <ele>1043.1677246</ele>
        <time>2010-01-03T09:59:05Z</time>
      </trkpt>
      <trkpt lat="47.173" lon="5.85615">
        <ele>1044.1291504</ele>
        <time>2010-01-03T09:59:18Z</time>
      </trkpt>
      <trkpt lat="47.17312" lon="5.85626">
        <ele>1046.0517578</ele>
        <time>2010-01-03T09:59:33Z</time>
      </trkpt>
      <trkpt lat="47.17316" lon="5.85629">
        <ele>1046.0517578</ele>
        <time>2010-01-03T09:59:36Z</time>
      </trkpt>
      <trkpt lat="47.1733" lon="5.85635">
        <ele>1046.5324707</ele>
        <time>2010-01-03T09:59:51Z</time>
      </trkpt>
      <trkpt lat="47.17333" lon="5.8564">
        <ele>1047.0129395</ele>
        <time>2010-01-03T09:59:55Z</time>
      </trkpt>
      <trkpt lat="47.1734" lon="5.85648">
        <ele>1047.9743652</ele>
        <time>2010-01-03T10:00:06Z</time>
      </trkpt>
      <trkpt lat="47.17359" lon="5.8566">
        <ele>1048.454834</ele>
        <time>2010-01-03T10:00:20Z</time>
      </trkpt>
      <trkpt lat="47.17368" lon="5.85672">
        <ele>1049.8969727</ele>
        <time>2010-01-03T10:00:34Z</time>
      </trkpt>
      <trkpt lat="47.1738" lon="5.85687">
        <ele>1051.3388672</ele>
        <time>2010-01-03T10:00:49Z</time>
      </trkpt>
      <trkpt lat="47.17394" lon="5.85702">
        <ele>1053.2617188</ele>
        <time>2010-01-03T10:01:06Z</time>
      </trkpt>
      <trkpt lat="47.17402" lon="5.85712">
        <ele>1053.7424316</ele>
        <time>2010-01-03T10:01:18Z</time>
      </trkpt>
      <trkpt lat="47.17416" lon="5.85726">
        <ele>1055.1843262</ele>
        <time>2010-01-03T10:01:33Z</time>
      </trkpt>
      <trkpt lat="47.17426" lon="5.85739">
        <ele>1056.1455078</ele>
        <time>2010-01-03T10:01:47Z</time>
      </trkpt>
      <trkpt lat="47.17434" lon="5.85748">
        <ele>1056.6262207</ele>
        <time>2010-01-03T10:01:58Z</time>
      </trkpt>
      <trkpt lat="47.17448" lon="5.85758">
        <ele>1058.0683594</ele>
        <time>2010-01-03T10:02:13Z</time>
      </trkpt>
      <trkpt lat="47.17462" lon="5.85766">
        <ele>1058.5488281</ele>
        <time>2010-01-03T10:02:28Z</time>
      </trkpt>
      <trkpt lat="47.17476" lon="5.85776">
        <ele>1059.9907227</ele>
        <time>2010-01-03T10:02:43Z</time>
      </trkpt>
      <trkpt lat="47.17488" lon="5.85787">
        <ele>1060.9521484</ele>
        <time>2010-01-03T10:02:58Z</time>
      </trkpt>
      <trkpt lat="47.17503" lon="5.85799">
        <ele>1061.9135742</ele>
        <time>2010-01-03T10:03:12Z</time>
      </trkpt>
      <trkpt lat="47.17515" lon="5.85813">
        <ele>1062.8747559</ele>
        <time>2010-01-03T10:03:28Z</time>
      </trkpt>
      <trkpt lat="47.17529" lon="5.85821">
        <ele>1064.7973633</ele>
        <time>2010-01-03T10:03:42Z</time>
      </trkpt>
      <trkpt lat="47.17545" lon="5.85829">
        <ele>1066.2392578</ele>
        <time>2010-01-03T10:03:58Z</time>
      </trkpt>
      <trkpt lat="47.17555" lon="5.85837">
        <ele>1067.6811523</ele>
        <time>2010-01-03T10:04:12Z</time>
      </trkpt>
      <trkpt lat="47.17564" lon="5.85846">
        <ele>1069.604248</ele>
        <time>2010-01-03T10:04:28Z</time>
      </trkpt>
      <trkpt lat="47.17574" lon="5.85852">
        <ele>1071.0461426</ele>
        <time>2010-01-03T10:04:41Z</time>
      </trkpt>
      <trkpt lat="47.17581" lon="5.8586">
        <ele>1071.5266113</ele>
        <time>2010-01-03T10:04:52Z</time>
      </trkpt>
      <trkpt lat="47.17582" lon="5.85862">
        <ele>1072.0073242</ele>
        <time>2010-01-03T10:04:54Z</time>
      </trkpt>
      <trkpt lat="47.17593" lon="5.85873">
        <ele>1072.4880371</ele>
        <time>2010-01-03T10:05:08Z</time>
      </trkpt>
      <trkpt lat="47.17592" lon="5.85878">
        <ele>1072.96875</ele>
        <time>2010-01-03T10:05:24Z</time>
      </trkpt>
      <trkpt lat="47.17593" lon="5.8588">
        <ele>1073.4494629</ele>
        <time>2010-01-03T10:06:01Z</time>
      </trkpt>
      <trkpt lat="47.17612" lon="5.85879">
        <ele>1076.333252</ele>
        <time>2010-01-03T10:06:37Z</time>
      </trkpt>
      <trkpt lat="47.17625" lon="5.85877">
        <ele>1078.2558594</ele>
        <time>2010-01-03T10:06:52Z</time>
      </trkpt>
      <trkpt lat="47.17627" lon="5.85877">
        <ele>1078.2558594</ele>
        <time>2010-01-03T10:06:54Z</time>
      </trkpt>
      <trkpt lat="47.1765" lon="5.85875">
        <ele>1079.217041</ele>
        <time>2010-01-03T10:07:15Z</time>
      </trkpt>
      <trkpt lat="47.17661" lon="5.85874">
        <ele>1078.7365723</ele>
        <time>2010-01-03T10:07:30Z</time>
      </trkpt>
      <trkpt lat="47.17683" lon="5.85872">
        <ele>1076.333252</ele>
        <time>2010-01-03T10:07:48Z</time>
      </trkpt>
      <trkpt lat="47.17701" lon="5.85874">
        <ele>1074.4106445</ele>
        <time>2010-01-03T10:08:05Z</time>
      </trkpt>
      <trkpt lat="47.17715" lon="5.85878">
        <ele>1072.4880371</ele>
        <time>2010-01-03T10:08:21Z</time>
      </trkpt>
      <trkpt lat="47.17722" lon="5.85879">
        <ele>1071.5266113</ele>
        <time>2010-01-03T10:08:27Z</time>
      </trkpt>
      <trkpt lat="47.17742" lon="5.85888">
        <ele>1069.604248</ele>
        <time>2010-01-03T10:08:44Z</time>
      </trkpt>
      <trkpt lat="47.17763" lon="5.8589">
        <ele>1068.1621094</ele>
        <time>2010-01-03T10:09:02Z</time>
      </trkpt>
      <trkpt lat="47.17779" lon="5.85887">
        <ele>1067.2006836</ele>
        <time>2010-01-03T10:09:17Z</time>
      </trkpt>
      <trkpt lat="47.17792" lon="5.85883">
        <ele>1065.7587891</ele>
        <time>2010-01-03T10:09:30Z</time>
      </trkpt>
      <trkpt lat="47.1781" lon="5.8588">
        <ele>1063.8359375</ele>
        <time>2010-01-03T10:09:45Z</time>
      </trkpt>
      <trkpt lat="47.17834" lon="5.85877">
        <ele>1062.394043</ele>
        <time>2010-01-03T10:10:03Z</time>
      </trkpt>
      <trkpt lat="47.17856" lon="5.85872">
        <ele>1060.9521484</ele>
        <time>2010-01-03T10:10:20Z</time>
      </trkpt>
      <trkpt lat="47.17881" lon="5.85867">
        <ele>1059.5102539</ele>
        <time>2010-01-03T10:10:37Z</time>
      </trkpt>
      <trkpt lat="47.17902" lon="5.85863">
        <ele>1058.5488281</ele>
        <time>2010-01-03T10:10:53Z</time>
      </trkpt>
      <trkpt lat="47.17921" lon="5.85856">
        <ele>1055.6650391</ele>
        <time>2010-01-03T10:11:11Z</time>
      </trkpt>
      <trkpt lat="47.17938" lon="5.85848">
        <ele>1054.7036133</ele>
        <time>2010-01-03T10:11:27Z</time>
      </trkpt>
      <trkpt lat="47.17956" lon="5.85842">
        <ele>1052.300293</ele>
        <time>2010-01-03T10:11:42Z</time>
      </trkpt>
      <trkpt lat="47.17976" lon="5.85848">
        <ele>1049.4162598</ele>
        <time>2010-01-03T10:11:59Z</time>
      </trkpt>
      <trkpt lat="47.17995" lon="5.85855">
        <ele>1047.0129395</ele>
        <time>2010-01-03T10:12:14Z</time>
      </trkpt>
      <trkpt lat="47.18019" lon="5.85861">
        <ele>1045.5710449</ele>
        <time>2010-01-03T10:12:31Z</time>
      </trkpt>
      <trkpt lat="47.18035" lon="5.85865">
        <ele>1045.090332</ele>
        <time>2010-01-03T10:12:46Z</time>
      </trkpt>
      <trkpt lat="47.18054" lon="5.85861">
        <ele>1044.6096191</ele>
        <time>2010-01-03T10:13:01Z</time>
      </trkpt>
      <trkpt lat="47.18071" lon="5.85856">
        <ele>1043.6484375</ele>
        <time>2010-01-03T10:13:14Z</time>
      </trkpt>
      <trkpt lat="47.18083" lon="5.85846">
        <ele>1043.6484375</ele>
        <time>2010-01-03T10:13:28Z</time>
      </trkpt>
      <trkpt lat="47.18086" lon="5.85844">
        <ele>1043.1677246</ele>
        <time>2010-01-03T10:13:41Z</time>
      </trkpt>
      <trkpt lat="47.18087" lon="5.85848">
        <ele>1044.1291504</ele>
        <time>2010-01-03T10:13:55Z</time>
      </trkpt>
      <trkpt lat="47.18092" lon="5.8586">
        <ele>1044.6096191</ele>
        <time>2010-01-03T10:14:16Z</time>
      </trkpt>
      <trkpt lat="47.18091" lon="5.85879">
        <ele>1044.6096191</ele>
        <time>2010-01-03T10:15:12Z</time>
      </trkpt>
      <trkpt lat="47.18097" lon="5.85884">
        <ele>1045.090332</ele>
        <time>2010-01-03T10:15:19Z</time>
      </trkpt>
      <trkpt lat="47.18109" lon="5.85885">
        <ele>1046.0517578</ele>
        <time>2010-01-03T10:15:30Z</time>
      </trkpt>
      <trkpt lat="47.18133" lon="5.85889">
        <ele>1047.4936523</ele>
        <time>2010-01-03T10:16:28Z</time>
      </trkpt>
      <trkpt lat="47.18152" lon="5.85902">
        <ele>1048.9355469</ele>
        <time>2010-01-03T10:17:49Z</time>
      </trkpt>
      <trkpt lat="47.18166" lon="5.85907">
        <ele>1049.4162598</ele>
        <time>2010-01-03T10:18:40Z</time>
      </trkpt>
      <trkpt lat="47.18184" lon="5.85909">
        <ele>1049.4162598</ele>
        <time>2010-01-03T10:18:59Z</time>
      </trkpt>
      <trkpt lat="47.182" lon="5.8587">
        <ele>1052.300293</ele>
        <time>2010-01-03T10:20:38Z</time>
      </trkpt>
      <trkpt lat="47.18206" lon="5.85859">
        <ele>1052.7810059</ele>
        <time>2010-01-03T10:20:46Z</time>
      </trkpt>
      <trkpt lat="47.18216" lon="5.85836">
        <ele>1054.2231445</ele>
        <time>2010-01-03T10:20:58Z</time>
      </trkpt>
      <trkpt lat="47.18221" lon="5.8583">
        <ele>1054.2231445</ele>
        <time>2010-01-03T10:21:02Z</time>
      </trkpt>
      <trkpt lat="47.18221" lon="5.85817">
        <ele>1055.6650391</ele>
        <time>2010-01-03T10:21:11Z</time>
      </trkpt>
      <trkpt lat="47.18231" lon="5.85816">
        <ele>1056.1455078</ele>
        <time>2010-01-03T10:21:17Z</time>
      </trkpt>
      <trkpt lat="47.18244" lon="5.8582">
        <ele>1057.1069336</ele>
        <time>2010-01-03T10:21:28Z</time>
      </trkpt>
      <trkpt lat="47.18246" lon="5.85822">
        <ele>1057.5876465</ele>
        <time>2010-01-03T10:21:31Z</time>
      </trkpt>
      <trkpt lat="47.18254" lon="5.85813">
        <ele>1058.5488281</ele>
        <time>2010-01-03T10:21:42Z</time>
      </trkpt>
      <trkpt lat="47.18269" lon="5.85817">
        <ele>1060.4714355</ele>
        <time>2010-01-03T10:21:58Z</time>
      </trkpt>
      <trkpt lat="47.18277" lon="5.85817">
        <ele>1060.9521484</ele>
        <time>2010-01-03T10:22:16Z</time>
      </trkpt>
      <trkpt lat="47.18256" lon="5.85773">
        <ele>1058.5488281</ele>
        <time>2010-01-03T10:23:30Z</time>
      </trkpt>
      <trkpt lat="47.1825" lon="5.85748">
        <ele>1057.1069336</ele>
        <time>2010-01-03T10:23:46Z</time>
      </trkpt>
      <trkpt lat="47.18241" lon="5.85721">
        <ele>1056.6262207</ele>
        <time>2010-01-03T10:24:01Z</time>
      </trkpt>
      <trkpt lat="47.18233" lon="5.85682">
        <ele>1056.1455078</ele>
        <time>2010-01-03T10:24:28Z</time>
      </trkpt>
      <trkpt lat="47.18224" lon="5.85664">
        <ele>1055.6650391</ele>
        <time>2010-01-03T10:24:42Z</time>
      </trkpt>
      <trkpt lat="47.18213" lon="5.85606">
        <ele>1057.1069336</ele>
        <time>2010-01-03T10:25:22Z</time>
      </trkpt>
      <trkpt lat="47.18199" lon="5.85575">
        <ele>1058.0683594</ele>
        <time>2010-01-03T10:25:43Z</time>
      </trkpt>
      <trkpt lat="47.18195" lon="5.85568">
        <ele>1058.5488281</ele>
        <time>2010-01-03T10:25:50Z</time>
      </trkpt>
      <trkpt lat="47.18185" lon="5.8555">
        <ele>1058.5488281</ele>
        <time>2010-01-03T10:26:05Z</time>
      </trkpt>
      <trkpt lat="47.18176" lon="5.85537">
        <ele>1058.5488281</ele>
        <time>2010-01-03T10:26:17Z</time>
      </trkpt>
      <trkpt lat="47.18169" lon="5.85527">
        <ele>1058.5488281</ele>
        <time>2010-01-03T10:26:30Z</time>
      </trkpt>
      <trkpt lat="47.18153" lon="5.85508">
        <ele>1058.5488281</ele>
        <time>2010-01-03T10:26:45Z</time>
      </trkpt>
      <trkpt lat="47.18144" lon="5.8549">
        <ele>1058.0683594</ele>
        <time>2010-01-03T10:26:57Z</time>
      </trkpt>
      <trkpt lat="47.18133" lon="5.85469">
        <ele>1059.029541</ele>
        <time>2010-01-03T10:27:13Z</time>
      </trkpt>
      <trkpt lat="47.18129" lon="5.85456">
        <ele>1058.5488281</ele>
        <time>2010-01-03T10:27:25Z</time>
      </trkpt>
      <trkpt lat="47.18124" lon="5.85445">
        <ele>1058.0683594</ele>
        <time>2010-01-03T10:27:36Z</time>
      </trkpt>
      <trkpt lat="47.1812" lon="5.85429">
        <ele>1057.5876465</ele>
        <time>2010-01-03T10:27:46Z</time>
      </trkpt>
      <trkpt lat="47.18109" lon="5.85414">
        <ele>1057.5876465</ele>
        <time>2010-01-03T10:28:02Z</time>
      </trkpt>
      <trkpt lat="47.18098" lon="5.8539">
        <ele>1057.5876465</ele>
        <time>2010-01-03T10:28:17Z</time>
      </trkpt>
      <trkpt lat="47.18089" lon="5.85373">
        <ele>1057.1069336</ele>
        <time>2010-01-03T10:28:30Z</time>
      </trkpt>
      <trkpt lat="47.18076" lon="5.85361">
        <ele>1057.1069336</ele>
        <time>2010-01-03T10:28:43Z</time>
      </trkpt>
      <trkpt lat="47.18071" lon="5.85357">
        <ele>1057.1069336</ele>
        <time>2010-01-03T10:28:49Z</time>
      </trkpt>
      <trkpt lat="47.18058" lon="5.85349">
        <ele>1056.6262207</ele>
        <time>2010-01-03T10:29:03Z</time>
      </trkpt>
      <trkpt lat="47.18047" lon="5.85327">
        <ele>1055.6650391</ele>
        <time>2010-01-03T10:29:20Z</time>
      </trkpt>
      <trkpt lat="47.18046" lon="5.85326">
        <ele>1055.6650391</ele>
        <time>2010-01-03T10:29:21Z</time>
      </trkpt>
      <trkpt lat="47.18032" lon="5.85315">
        <ele>1055.1843262</ele>
        <time>2010-01-03T10:29:38Z</time>
      </trkpt>
      <trkpt lat="47.18023" lon="5.85298">
        <ele>1054.7036133</ele>
        <time>2010-01-03T10:29:48Z</time>
      </trkpt>
      <trkpt lat="47.18011" lon="5.85288">
        <ele>1053.7424316</ele>
        <time>2010-01-03T10:30:02Z</time>
      </trkpt>
      <trkpt lat="47.17997" lon="5.85273">
        <ele>1053.2617188</ele>
        <time>2010-01-03T10:30:17Z</time>
      </trkpt>
      <trkpt lat="47.17988" lon="5.85267">
        <ele>1052.300293</ele>
        <time>2010-01-03T10:30:27Z</time>
      </trkpt>
      <trkpt lat="47.17979" lon="5.85243">
        <ele>1051.3388672</ele>
        <time>2010-01-03T10:30:42Z</time>
      </trkpt>
      <trkpt lat="47.1797" lon="5.85228">
        <ele>1050.8581543</ele>
        <time>2010-01-03T10:30:54Z</time>
      </trkpt>
      <trkpt lat="47.17961" lon="5.85209">
        <ele>1050.3776855</ele>
        <time>2010-01-03T10:31:14Z</time>
      </trkpt>
      <trkpt lat="47.17953" lon="5.85191">
        <ele>1049.8969727</ele>
        <time>2010-01-03T10:31:26Z</time>
      </trkpt>
      <trkpt lat="47.17947" lon="5.85176">
        <ele>1049.4162598</ele>
        <time>2010-01-03T10:31:40Z</time>
      </trkpt>
      <trkpt lat="47.17936" lon="5.8516">
        <ele>1048.454834</ele>
        <time>2010-01-03T10:32:12Z</time>
      </trkpt>
      <trkpt lat="47.17931" lon="5.85152">
        <ele>1047.9743652</ele>
        <time>2010-01-03T10:32:57Z</time>
      </trkpt>
      <trkpt lat="47.17931" lon="5.85106">
        <ele>1046.0517578</ele>
        <time>2010-01-03T10:33:11Z</time>
      </trkpt>
      <trkpt lat="47.17923" lon="5.85089">
        <ele>1045.090332</ele>
        <time>2010-01-03T10:33:23Z</time>
      </trkpt>
      <trkpt lat="47.17917" lon="5.85073">
        <ele>1044.1291504</ele>
        <time>2010-01-03T10:33:34Z</time>
      </trkpt>
      <trkpt lat="47.17913" lon="5.85054">
        <ele>1042.6872559</ele>
        <time>2010-01-03T10:33:47Z</time>
      </trkpt>
      <trkpt lat="47.17902" lon="5.85031">
        <ele>1041.2451172</ele>
        <time>2010-01-03T10:34:04Z</time>
      </trkpt>
      <trkpt lat="47.17908" lon="5.85011">
        <ele>1041.2451172</ele>
        <time>2010-01-03T10:34:19Z</time>
      </trkpt>
      <trkpt lat="47.17926" lon="5.84989">
        <ele>1039.3225098</ele>
        <time>2010-01-03T10:34:46Z</time>
      </trkpt>
      <trkpt lat="47.17917" lon="5.84977">
        <ele>1037.8806152</ele>
        <time>2010-01-03T10:35:03Z</time>
      </trkpt>
      <trkpt lat="47.17917" lon="5.84974">
        <ele>1037.8806152</ele>
        <time>2010-01-03T10:35:04Z</time>
      </trkpt>
      <trkpt lat="47.17909" lon="5.84959">
        <ele>1036.4387207</ele>
        <time>2010-01-03T10:35:18Z</time>
      </trkpt>
      <trkpt lat="47.17906" lon="5.84944">
        <ele>1035.4770508</ele>
        <time>2010-01-03T10:35:29Z</time>
      </trkpt>
      <trkpt lat="47.17896" lon="5.8493">
        <ele>1034.0351563</ele>
        <time>2010-01-03T10:35:42Z</time>
      </trkpt>
      <trkpt lat="47.17892" lon="5.84926">
        <ele>1033.0737305</ele>
        <time>2010-01-03T10:35:50Z</time>
      </trkpt>
      <trkpt lat="47.17885" lon="5.84918">
        <ele>1032.5932617</ele>
        <time>2010-01-03T10:35:59Z</time>
      </trkpt>
      <trkpt lat="47.17875" lon="5.84901">
        <ele>1030.1899414</ele>
        <time>2010-01-03T10:36:16Z</time>
      </trkpt>
      <trkpt lat="47.17859" lon="5.84882">
        <ele>1026.3447266</ele>
        <time>2010-01-03T10:36:38Z</time>
      </trkpt>
      <trkpt lat="47.17848" lon="5.84866">
        <ele>1023.4609375</ele>
        <time>2010-01-03T10:36:54Z</time>
      </trkpt>
      <trkpt lat="47.17839" lon="5.84858">
        <ele>1020.5769043</ele>
        <time>2010-01-03T10:37:07Z</time>
      </trkpt>
      <trkpt lat="47.17835" lon="5.84848">
        <ele>1017.2121582</ele>
        <time>2010-01-03T10:37:18Z</time>
      </trkpt>
      <trkpt lat="47.17823" lon="5.84841">
        <ele>1014.328125</ele>
        <time>2010-01-03T10:37:37Z</time>
      </trkpt>
      <trkpt lat="47.17809" lon="5.84845">
        <ele>1013.8474121</ele>
        <time>2010-01-03T10:38:09Z</time>
      </trkpt>
      <trkpt lat="47.17823" lon="5.84839">
        <ele>1012.8862305</ele>
        <time>2010-01-03T10:39:26Z</time>
      </trkpt>
      <trkpt lat="47.17822" lon="5.84839">
        <ele>1013.3669434</ele>
        <time>2010-01-03T10:39:56Z</time>
      </trkpt>
      <trkpt lat="47.17812" lon="5.84839">
        <ele>1012.4055176</ele>
        <time>2010-01-03T10:40:12Z</time>
      </trkpt>
      <trkpt lat="47.178" lon="5.84824">
        <ele>1013.3669434</ele>
        <time>2010-01-03T10:40:28Z</time>
      </trkpt>
      <trkpt lat="47.17794" lon="5.84813">
        <ele>1013.8474121</ele>
        <time>2010-01-03T10:40:43Z</time>
      </trkpt>
      <trkpt lat="47.17787" lon="5.84799">
        <ele>1013.8474121</ele>
        <time>2010-01-03T10:41:00Z</time>
      </trkpt>
      <trkpt lat="47.17775" lon="5.84778">
        <ele>1013.3669434</ele>
        <time>2010-01-03T10:41:18Z</time>
      </trkpt>
      <trkpt lat="47.1776" lon="5.8476">
        <ele>1013.3669434</ele>
        <time>2010-01-03T10:41:39Z</time>
      </trkpt>
      <trkpt lat="47.1775" lon="5.84738">
        <ele>1013.3669434</ele>
        <time>2010-01-03T10:41:54Z</time>
      </trkpt>
      <trkpt lat="47.1774" lon="5.84721">
        <ele>1013.3669434</ele>
        <time>2010-01-03T10:42:09Z</time>
      </trkpt>
      <trkpt lat="47.1773" lon="5.8471">
        <ele>1013.3669434</ele>
        <time>2010-01-03T10:42:28Z</time>
      </trkpt>
      <trkpt lat="47.17726" lon="5.84673">
        <ele>1013.8474121</ele>
        <time>2010-01-03T10:42:59Z</time>
      </trkpt>
      <trkpt lat="47.17722" lon="5.84643">
        <ele>1013.8474121</ele>
        <time>2010-01-03T10:43:12Z</time>
      </trkpt>
      <trkpt lat="47.17721" lon="5.84607">
        <ele>1014.8088379</ele>
        <time>2010-01-03T10:43:31Z</time>
      </trkpt>
      <trkpt lat="47.17714" lon="5.84586">
        <ele>1016.2507324</ele>
        <time>2010-01-03T10:43:47Z</time>
      </trkpt>
      <trkpt lat="47.17699" lon="5.84559">
        <ele>1017.692627</ele>
        <time>2010-01-03T10:44:12Z</time>
      </trkpt>
      <trkpt lat="47.17686" lon="5.8453">
        <ele>1018.1733398</ele>
        <time>2010-01-03T10:44:35Z</time>
      </trkpt>
      <trkpt lat="47.17683" lon="5.84517">
        <ele>1016.2507324</ele>
        <time>2010-01-03T10:45:03Z</time>
      </trkpt>
      <trkpt lat="47.17683" lon="5.84509">
        <ele>1015.7702637</ele>
        <time>2010-01-03T10:45:08Z</time>
      </trkpt>
      <trkpt lat="47.17681" lon="5.84492">
        <ele>1014.8088379</ele>
        <time>2010-01-03T10:45:14Z</time>
      </trkpt>
      <trkpt lat="47.17674" lon="5.84481">
        <ele>1013.8474121</ele>
        <time>2010-01-03T10:45:28Z</time>
      </trkpt>
      <trkpt lat="47.17664" lon="5.8446">
        <ele>1011.9250488</ele>
        <time>2010-01-03T10:45:49Z</time>
      </trkpt>
      <trkpt lat="47.17657" lon="5.84447">
        <ele>1011.9250488</ele>
        <time>2010-01-03T10:46:00Z</time>
      </trkpt>
      <trkpt lat="47.1765" lon="5.84433">
        <ele>1011.4443359</ele>
        <time>2010-01-03T10:46:13Z</time>
      </trkpt>
      <trkpt lat="47.17639" lon="5.8442">
        <ele>1010.0021973</ele>
        <time>2010-01-03T10:46:25Z</time>
      </trkpt>
      <trkpt lat="47.17634" lon="5.84412">
        <ele>1010.0021973</ele>
        <time>2010-01-03T10:46:37Z</time>
      </trkpt>
      <trkpt lat="47.17625" lon="5.84393">
        <ele>1010.0021973</ele>
        <time>2010-01-03T10:46:53Z</time>
      </trkpt>
      <trkpt lat="47.17622" lon="5.84389">
        <ele>1009.5217285</ele>
        <time>2010-01-03T10:46:57Z</time>
      </trkpt>
      <trkpt lat="47.17607" lon="5.84381">
        <ele>1009.5217285</ele>
        <time>2010-01-03T10:47:09Z</time>
      </trkpt>
      <trkpt lat="47.17592" lon="5.84378">
        <ele>1009.5217285</ele>
        <time>2010-01-03T10:47:21Z</time>
      </trkpt>
      <trkpt lat="47.17589" lon="5.8436">
        <ele>1009.5217285</ele>
        <time>2010-01-03T10:47:34Z</time>
      </trkpt>
      <trkpt lat="47.1758" lon="5.8436">
        <ele>1010.0021973</ele>
        <time>2010-01-03T10:48:02Z</time>
      </trkpt>
      <trkpt lat="47.17565" lon="5.84373">
        <ele>1010.0021973</ele>
        <time>2010-01-03T10:48:14Z</time>
      </trkpt>
      <trkpt lat="47.17557" lon="5.84354">
        <ele>1010.0021973</ele>
        <time>2010-01-03T10:48:30Z</time>
      </trkpt>
      <trkpt lat="47.17555" lon="5.84353">
        <ele>1010.0021973</ele>
        <time>2010-01-03T10:48:33Z</time>
      </trkpt>
      <trkpt lat="47.17546" lon="5.84346">
        <ele>1010.4829102</ele>
        <time>2010-01-03T10:48:42Z</time>
      </trkpt>
      <trkpt lat="47.17538" lon="5.84342">
        <ele>1010.0021973</ele>
        <time>2010-01-03T10:48:50Z</time>
      </trkpt>
      <trkpt lat="47.17534" lon="5.84341">
        <ele>1010.0021973</ele>
        <time>2010-01-03T10:48:54Z</time>
      </trkpt>
      <trkpt lat="47.17528" lon="5.84342">
        <ele>1010.0021973</ele>
        <time>2010-01-03T10:49:11Z</time>
      </trkpt>
      <trkpt lat="47.17519" lon="5.84336">
        <ele>1010.0021973</ele>
        <time>2010-01-03T10:49:22Z</time>
      </trkpt>
      <trkpt lat="47.17509" lon="5.84325">
        <ele>1010.0021973</ele>
        <time>2010-01-03T10:49:33Z</time>
      </trkpt>
      <trkpt lat="47.17507" lon="5.84295">
        <ele>1010.0021973</ele>
        <time>2010-01-03T10:50:23Z</time>
      </trkpt>
      <trkpt lat="47.17498" lon="5.84303">
        <ele>1010.0021973</ele>
        <time>2010-01-03T10:50:40Z</time>
      </trkpt>
      <trkpt lat="47.17474" lon="5.84301">
        <ele>1010.0021973</ele>
        <time>2010-01-03T10:51:06Z</time>
      </trkpt>
      <trkpt lat="47.17497" lon="5.84265">
        <ele>1010.4829102</ele>
        <time>2010-01-03T10:55:06Z</time>
      </trkpt>
      <trkpt lat="47.17504" lon="5.84189">
        <ele>1011.4443359</ele>
        <time>2010-01-03T10:56:32Z</time>
      </trkpt>
      <trkpt lat="47.17496" lon="5.84154">
        <ele>1014.328125</ele>
        <time>2010-01-03T10:57:11Z</time>
      </trkpt>
      <trkpt lat="47.17495" lon="5.841">
        <ele>1017.692627</ele>
        <time>2010-01-03T10:57:46Z</time>
      </trkpt>
      <trkpt lat="47.17515" lon="5.84087">
        <ele>1018.6540527</ele>
        <time>2010-01-03T10:58:08Z</time>
      </trkpt>
      <trkpt lat="47.17541" lon="5.84073">
        <ele>1019.1347656</ele>
        <time>2010-01-03T10:58:44Z</time>
      </trkpt>
      <trkpt lat="47.17573" lon="5.8407">
        <ele>1021.0576172</ele>
        <time>2010-01-03T11:00:05Z</time>
      </trkpt>
      <trkpt lat="47.17576" lon="5.84089">
        <ele>1021.5380859</ele>
        <time>2010-01-03T11:00:27Z</time>
      </trkpt>
      <trkpt lat="47.17566" lon="5.84106">
        <ele>1021.5380859</ele>
        <time>2010-01-03T11:00:50Z</time>
      </trkpt>
      <trkpt lat="47.17566" lon="5.84109">
        <ele>1022.0187988</ele>
        <time>2010-01-03T11:01:33Z</time>
      </trkpt>
      <trkpt lat="47.17594" lon="5.84036">
        <ele>1024.902832</ele>
        <time>2010-01-03T11:05:49Z</time>
      </trkpt>
      <trkpt lat="47.17589" lon="5.83993">
        <ele>1027.7866211</ele>
        <time>2010-01-03T11:06:21Z</time>
      </trkpt>
      <trkpt lat="47.17588" lon="5.83988">
        <ele>1028.267334</ele>
        <time>2010-01-03T11:06:27Z</time>
      </trkpt>
      <trkpt lat="47.17584" lon="5.83957">
        <ele>1030.1899414</ele>
        <time>2010-01-03T11:06:46Z</time>
      </trkpt>
      <trkpt lat="47.17583" lon="5.83937">
        <ele>1031.1513672</ele>
        <time>2010-01-03T11:07:05Z</time>
      </trkpt>
      <trkpt lat="47.17586" lon="5.83916">
        <ele>1032.1125488</ele>
        <time>2010-01-03T11:07:19Z</time>
      </trkpt>
      <trkpt lat="47.17582" lon="5.83869">
        <ele>1034.0351563</ele>
        <time>2010-01-03T11:07:52Z</time>
      </trkpt>
      <trkpt lat="47.17587" lon="5.8386">
        <ele>1034.0351563</ele>
        <time>2010-01-03T11:08:05Z</time>
      </trkpt>
      <trkpt lat="47.17591" lon="5.83855">
        <ele>1034.5158691</ele>
        <time>2010-01-03T11:08:14Z</time>
      </trkpt>
      <trkpt lat="47.17592" lon="5.83849">
        <ele>1034.5158691</ele>
        <time>2010-01-03T11:08:18Z</time>
      </trkpt>
      <trkpt lat="47.17599" lon="5.83843">
        <ele>1034.996582</ele>
        <time>2010-01-03T11:08:32Z</time>
      </trkpt>
      <trkpt lat="47.17589" lon="5.83853">
        <ele>1034.5158691</ele>
        <time>2010-01-03T11:09:52Z</time>
      </trkpt>
      <trkpt lat="47.17578" lon="5.83865">
        <ele>1034.0351563</ele>
        <time>2010-01-03T11:10:07Z</time>
      </trkpt>
      <trkpt lat="47.17563" lon="5.83874">
        <ele>1034.0351563</ele>
        <time>2010-01-03T11:10:22Z</time>
      </trkpt>
      <trkpt lat="47.17537" lon="5.83879">
        <ele>1033.0737305</ele>
        <time>2010-01-03T11:10:49Z</time>
      </trkpt>
      <trkpt lat="47.17525" lon="5.83883">
        <ele>1032.5932617</ele>
        <time>2010-01-03T11:11:02Z</time>
      </trkpt>
      <trkpt lat="47.17524" lon="5.83879">
        <ele>1032.5932617</ele>
        <time>2010-01-03T11:11:16Z</time>
      </trkpt>
      <trkpt lat="47.17523" lon="5.83882">
        <ele>1032.5932617</ele>
        <time>2010-01-03T11:11:18Z</time>
      </trkpt>
      <trkpt lat="47.17509" lon="5.83897">
        <ele>1031.1513672</ele>
        <time>2010-01-03T11:11:33Z</time>
      </trkpt>
      <trkpt lat="47.17494" lon="5.83907">
        <ele>1030.1899414</ele>
        <time>2010-01-03T11:11:48Z</time>
      </trkpt>
      <trkpt lat="47.17484" lon="5.83901">
        <ele>1030.1899414</ele>
        <time>2010-01-03T11:12:06Z</time>
      </trkpt>
      <trkpt lat="47.17463" lon="5.83887">
        <ele>1030.6706543</ele>
        <time>2010-01-03T11:12:30Z</time>
      </trkpt>
      <trkpt lat="47.17441" lon="5.83868">
        <ele>1034.0351563</ele>
        <time>2010-01-03T11:13:23Z</time>
      </trkpt>
      <trkpt lat="47.17327" lon="5.83842">
        <ele>1036.9191895</ele>
        <time>2010-01-03T11:15:02Z</time>
      </trkpt>
      <trkpt lat="47.17232" lon="5.83801">
        <ele>1039.8032227</ele>
        <time>2010-01-03T11:16:36Z</time>
      </trkpt>
      <trkpt lat="47.17215" lon="5.83782">
        <ele>1040.7644043</ele>
        <time>2010-01-03T11:17:08Z</time>
      </trkpt>
      <trkpt lat="47.1711" lon="5.83704">
        <ele>1044.1291504</ele>
        <time>2010-01-03T11:19:19Z</time>
      </trkpt>
      <trkpt lat="47.17062" lon="5.83652">
        <ele>1044.1291504</ele>
        <time>2010-01-03T11:20:26Z</time>
      </trkpt>
      <trkpt lat="47.16944" lon="5.83575">
        <ele>1041.2451172</ele>
        <time>2010-01-03T11:23:50Z</time>
      </trkpt>
      <trkpt lat="47.16918" lon="5.83564">
        <ele>1035.9577637</ele>
        <time>2010-01-03T11:24:57Z</time>
      </trkpt>
      <trkpt lat="47.16918" lon="5.83564">
        <ele>1042.206543</ele>
        <time>2010-01-03T11:24:58Z</time>
      </trkpt>
      <trkpt lat="47.16914" lon="5.83577">
        <ele>1038.842041</ele>
        <time>2010-01-03T11:25:12Z</time>
      </trkpt>
      <trkpt lat="47.16897" lon="5.836">
        <ele>1035.9577637</ele>
        <time>2010-01-03T11:25:46Z</time>
      </trkpt>
      <trkpt lat="47.16886" lon="5.8363">
        <ele>1032.5932617</ele>
        <time>2010-01-03T11:26:04Z</time>
      </trkpt>
      <trkpt lat="47.16876" lon="5.83646">
        <ele>1029.2285156</ele>
        <time>2010-01-03T11:26:18Z</time>
      </trkpt>
      <trkpt lat="47.16858" lon="5.83649">
        <ele>1026.3447266</ele>
        <time>2010-01-03T11:26:32Z</time>
      </trkpt>
      <trkpt lat="47.16838" lon="5.83642">
        <ele>1023.4609375</ele>
        <time>2010-01-03T11:26:48Z</time>
      </trkpt>
      <trkpt lat="47.16819" lon="5.83641">
        <ele>1020.5769043</ele>
        <time>2010-01-03T11:27:04Z</time>
      </trkpt>
      <trkpt lat="47.16804" lon="5.83619">
        <ele>1017.2121582</ele>
        <time>2010-01-03T11:27:21Z</time>
      </trkpt>
      <trkpt lat="47.16792" lon="5.83603">
        <ele>1014.8088379</ele>
        <time>2010-01-03T11:27:38Z</time>
      </trkpt>
      <trkpt lat="47.16778" lon="5.83598">
        <ele>1011.4443359</ele>
        <time>2010-01-03T11:28:00Z</time>
      </trkpt>
      <trkpt lat="47.1677" lon="5.83615">
        <ele>1011.9250488</ele>
        <time>2010-01-03T11:28:21Z</time>
      </trkpt>
      <trkpt lat="47.16759" lon="5.83636">
        <ele>1012.4055176</ele>
        <time>2010-01-03T11:28:37Z</time>
      </trkpt>
      <trkpt lat="47.16753" lon="5.83644">
        <ele>1012.4055176</ele>
        <time>2010-01-03T11:28:59Z</time>
      </trkpt>
      <trkpt lat="47.16741" lon="5.83674">
        <ele>1012.4055176</ele>
        <time>2010-01-03T11:29:29Z</time>
      </trkpt>
      <trkpt lat="47.16741" lon="5.83689">
        <ele>1012.4055176</ele>
        <time>2010-01-03T11:30:15Z</time>
      </trkpt>
      <trkpt lat="47.16741" lon="5.83691">
        <ele>1012.4055176</ele>
        <time>2010-01-03T11:30:23Z</time>
      </trkpt>
      <trkpt lat="47.16739" lon="5.8372">
        <ele>1012.4055176</ele>
        <time>2010-01-03T11:30:44Z</time>
      </trkpt>
      <trkpt lat="47.16738" lon="5.83724">
        <ele>1012.4055176</ele>
        <time>2010-01-03T11:30:47Z</time>
      </trkpt>
      <trkpt lat="47.16736" lon="5.8375">
        <ele>1012.4055176</ele>
        <time>2010-01-03T11:31:03Z</time>
      </trkpt>
      <trkpt lat="47.16734" lon="5.83768">
        <ele>1012.4055176</ele>
        <time>2010-01-03T11:31:16Z</time>
      </trkpt>
      <trkpt lat="47.16731" lon="5.83782">
        <ele>1012.4055176</ele>
        <time>2010-01-03T11:31:28Z</time>
      </trkpt>
      <trkpt lat="47.16728" lon="5.83807">
        <ele>1012.4055176</ele>
        <time>2010-01-03T11:31:46Z</time>
      </trkpt>
      <trkpt lat="47.16729" lon="5.83823">
        <ele>1012.4055176</ele>
        <time>2010-01-03T11:32:06Z</time>
      </trkpt>
      <trkpt lat="47.16725" lon="5.83842">
        <ele>1012.4055176</ele>
        <time>2010-01-03T11:32:24Z</time>
      </trkpt>
      <trkpt lat="47.16726" lon="5.83859">
        <ele>1012.4055176</ele>
        <time>2010-01-03T11:32:43Z</time>
      </trkpt>
      <trkpt lat="47.16726" lon="5.83866">
        <ele>1011.9250488</ele>
        <time>2010-01-03T11:33:01Z</time>
      </trkpt>
      <trkpt lat="47.16728" lon="5.83867">
        <ele>1011.9250488</ele>
        <time>2010-01-03T11:33:25Z</time>
      </trkpt>
      <trkpt lat="47.16719" lon="5.83895">
        <ele>1012.4055176</ele>
        <time>2010-01-03T11:34:11Z</time>
      </trkpt>
      <trkpt lat="47.16711" lon="5.83925">
        <ele>1011.4443359</ele>
        <time>2010-01-03T11:34:53Z</time>
      </trkpt>
      <trkpt lat="47.16705" lon="5.83947">
        <ele>1011.9250488</ele>
        <time>2010-01-03T11:35:10Z</time>
      </trkpt>
      <trkpt lat="47.16704" lon="5.83957">
        <ele>1011.4443359</ele>
        <time>2010-01-03T11:35:17Z</time>
      </trkpt>
      <trkpt lat="47.167" lon="5.83968">
        <ele>1011.9250488</ele>
        <time>2010-01-03T11:35:24Z</time>
      </trkpt>
      <trkpt lat="47.16694" lon="5.83994">
        <ele>1011.4443359</ele>
        <time>2010-01-03T11:35:42Z</time>
      </trkpt>
      <trkpt lat="47.16694" lon="5.84009">
        <ele>1011.4443359</ele>
        <time>2010-01-03T11:35:53Z</time>
      </trkpt>
      <trkpt lat="47.16691" lon="5.84027">
        <ele>1011.4443359</ele>
        <time>2010-01-03T11:36:04Z</time>
      </trkpt>
      <trkpt lat="47.16687" lon="5.84054">
        <ele>1011.9250488</ele>
        <time>2010-01-03T11:36:22Z</time>
      </trkpt>
      <trkpt lat="47.16683" lon="5.84073">
        <ele>1011.9250488</ele>
        <time>2010-01-03T11:36:35Z</time>
      </trkpt>
      <trkpt lat="47.16683" lon="5.84073">
        <ele>1010.963623</ele>
        <time>2010-01-03T11:36:36Z</time>
      </trkpt>
      <trkpt lat="47.16679" lon="5.84108">
        <ele>1011.9250488</ele>
        <time>2010-01-03T11:36:59Z</time>
      </trkpt>
      <trkpt lat="47.16673" lon="5.84143">
        <ele>1011.9250488</ele>
        <time>2010-01-03T11:37:22Z</time>
      </trkpt>
      <trkpt lat="47.16666" lon="5.84167">
        <ele>1011.9250488</ele>
        <time>2010-01-03T11:37:43Z</time>
      </trkpt>
      <trkpt lat="47.16653" lon="5.84219">
        <ele>1012.4055176</ele>
        <time>2010-01-03T11:39:04Z</time>
      </trkpt>
      <trkpt lat="47.16651" lon="5.84242">
        <ele>1012.4055176</ele>
        <time>2010-01-03T11:39:21Z</time>
      </trkpt>
      <trkpt lat="47.16645" lon="5.84281">
        <ele>1011.9250488</ele>
        <time>2010-01-03T11:39:44Z</time>
      </trkpt>
      <trkpt lat="47.16644" lon="5.84296">
        <ele>1011.9250488</ele>
        <time>2010-01-03T11:39:54Z</time>
      </trkpt>
      <trkpt lat="47.16642" lon="5.84312">
        <ele>1012.8862305</ele>
        <time>2010-01-03T11:40:04Z</time>
      </trkpt>
      <trkpt lat="47.16636" lon="5.84339">
        <ele>1011.9250488</ele>
        <time>2010-01-03T11:40:21Z</time>
      </trkpt>
      <trkpt lat="47.16632" lon="5.84367">
        <ele>1011.9250488</ele>
        <time>2010-01-03T11:40:37Z</time>
      </trkpt>
      <trkpt lat="47.16627" lon="5.84394">
        <ele>1011.9250488</ele>
        <time>2010-01-03T11:40:55Z</time>
      </trkpt>
      <trkpt lat="47.16625" lon="5.84399">
        <ele>1011.9250488</ele>
        <time>2010-01-03T11:40:58Z</time>
      </trkpt>
      <trkpt lat="47.16625" lon="5.84406">
        <ele>1011.9250488</ele>
        <time>2010-01-03T11:41:03Z</time>
      </trkpt>
      <trkpt lat="47.16621" lon="5.84424">
        <ele>1011.9250488</ele>
        <time>2010-01-03T11:41:14Z</time>
      </trkpt>
      <trkpt lat="47.16618" lon="5.84451">
        <ele>1011.9250488</ele>
        <time>2010-01-03T11:41:29Z</time>
      </trkpt>
      <trkpt lat="47.1662" lon="5.84455">
        <ele>1012.4055176</ele>
        <time>2010-01-03T11:42:06Z</time>
      </trkpt>
      <trkpt lat="47.16619" lon="5.84464">
        <ele>1012.4055176</ele>
        <time>2010-01-03T11:43:03Z</time>
      </trkpt>
      <trkpt lat="47.1661" lon="5.84493">
        <ele>1012.8862305</ele>
        <time>2010-01-03T11:43:21Z</time>
      </trkpt>
      <trkpt lat="47.16612" lon="5.84517">
        <ele>1011.9250488</ele>
        <time>2010-01-03T11:43:35Z</time>
      </trkpt>
      <trkpt lat="47.16616" lon="5.84517">
        <ele>1011.4443359</ele>
        <time>2010-01-03T11:43:39Z</time>
      </trkpt>
      <trkpt lat="47.16627" lon="5.84524">
        <ele>1010.963623</ele>
        <time>2010-01-03T11:43:48Z</time>
      </trkpt>
      <trkpt lat="47.16631" lon="5.84533">
        <ele>1010.963623</ele>
        <time>2010-01-03T11:43:54Z</time>
      </trkpt>
      <trkpt lat="47.16635" lon="5.84537">
        <ele>1010.963623</ele>
        <time>2010-01-03T11:43:58Z</time>
      </trkpt>
      <trkpt lat="47.16654" lon="5.8455">
        <ele>1010.963623</ele>
        <time>2010-01-03T11:44:15Z</time>
      </trkpt>
      <trkpt lat="47.16672" lon="5.84564">
        <ele>1011.4443359</ele>
        <time>2010-01-03T11:44:32Z</time>
      </trkpt>
      <trkpt lat="47.16685" lon="5.84574">
        <ele>1010.963623</ele>
        <time>2010-01-03T11:44:47Z</time>
      </trkpt>
      <trkpt lat="47.16701" lon="5.84587">
        <ele>1011.4443359</ele>
        <time>2010-01-03T11:45:04Z</time>
      </trkpt>
      <trkpt lat="47.16702" lon="5.84588">
        <ele>1010.963623</ele>
        <time>2010-01-03T11:45:05Z</time>
      </trkpt>
      <trkpt lat="47.16716" lon="5.84596">
        <ele>1010.963623</ele>
        <time>2010-01-03T11:45:20Z</time>
      </trkpt>
      <trkpt lat="47.16743" lon="5.84623">
        <ele>1012.4055176</ele>
        <time>2010-01-03T11:45:55Z</time>
      </trkpt>
      <trkpt lat="47.16744" lon="5.84627">
        <ele>1011.9250488</ele>
        <time>2010-01-03T11:46:01Z</time>
      </trkpt>
      <trkpt lat="47.16743" lon="5.84648">
        <ele>1011.9250488</ele>
        <time>2010-01-03T11:46:13Z</time>
      </trkpt>
      <trkpt lat="47.16743" lon="5.84669">
        <ele>1012.4055176</ele>
        <time>2010-01-03T11:46:27Z</time>
      </trkpt>
      <trkpt lat="47.16742" lon="5.84697">
        <ele>1011.9250488</ele>
        <time>2010-01-03T11:46:44Z</time>
      </trkpt>
      <trkpt lat="47.16746" lon="5.84727">
        <ele>1012.4055176</ele>
        <time>2010-01-03T11:47:03Z</time>
      </trkpt>
      <trkpt lat="47.16751" lon="5.84757">
        <ele>1012.4055176</ele>
        <time>2010-01-03T11:47:21Z</time>
      </trkpt>
      <trkpt lat="47.16749" lon="5.84777">
        <ele>1012.4055176</ele>
        <time>2010-01-03T11:47:33Z</time>
      </trkpt>
      <trkpt lat="47.16755" lon="5.84808">
        <ele>1012.4055176</ele>
        <time>2010-01-03T11:47:51Z</time>
      </trkpt>
      <trkpt lat="47.16757" lon="5.84843">
        <ele>1012.8862305</ele>
        <time>2010-01-03T11:48:12Z</time>
      </trkpt>
      <trkpt lat="47.16758" lon="5.84865">
        <ele>1012.8862305</ele>
        <time>2010-01-03T11:48:31Z</time>
      </trkpt>
      <trkpt lat="47.16762" lon="5.8489">
        <ele>1012.8862305</ele>
        <time>2010-01-03T11:48:50Z</time>
      </trkpt>
      <trkpt lat="47.16759" lon="5.84907">
        <ele>1012.8862305</ele>
        <time>2010-01-03T11:49:04Z</time>
      </trkpt>
      <trkpt lat="47.16754" lon="5.84928">
        <ele>1012.8862305</ele>
        <time>2010-01-03T11:49:18Z</time>
      </trkpt>
      <trkpt lat="47.16752" lon="5.8493">
        <ele>1013.3669434</ele>
        <time>2010-01-03T11:49:39Z</time>
      </trkpt>
      <trkpt lat="47.16748" lon="5.84957">
        <ele>1013.3669434</ele>
        <time>2010-01-03T11:50:38Z</time>
      </trkpt>
      <trkpt lat="47.16735" lon="5.84977">
        <ele>1013.8474121</ele>
        <time>2010-01-03T11:50:53Z</time>
      </trkpt>
      <trkpt lat="47.16722" lon="5.8497">
        <ele>1014.328125</ele>
        <time>2010-01-03T11:51:12Z</time>
      </trkpt>
      <trkpt lat="47.16721" lon="5.8497">
        <ele>1014.328125</ele>
        <time>2010-01-03T11:51:31Z</time>
      </trkpt>
      <trkpt lat="47.16718" lon="5.84971">
        <ele>1013.8474121</ele>
        <time>2010-01-03T11:51:34Z</time>
      </trkpt>
      <trkpt lat="47.16713" lon="5.84976">
        <ele>1012.4055176</ele>
        <time>2010-01-03T11:51:39Z</time>
      </trkpt>
      <trkpt lat="47.16705" lon="5.85">
        <ele>1014.328125</ele>
        <time>2010-01-03T11:51:54Z</time>
      </trkpt>
      <trkpt lat="47.16691" lon="5.85018">
        <ele>1014.328125</ele>
        <time>2010-01-03T11:52:08Z</time>
      </trkpt>
      <trkpt lat="47.16681" lon="5.85029">
        <ele>1013.8474121</ele>
        <time>2010-01-03T11:52:20Z</time>
      </trkpt>
      <trkpt lat="47.16669" lon="5.85032">
        <ele>1013.3669434</ele>
        <time>2010-01-03T11:52:34Z</time>
      </trkpt>
      <trkpt lat="47.16664" lon="5.85034">
        <ele>1013.8474121</ele>
        <time>2010-01-03T11:52:48Z</time>
      </trkpt>
    </trkseg>
  </trk>
</gpx>